Kake Airport Kake US
ICAO: PAFE
IATA:
Category: Medium
Scheduled Services:

Elevation: 172 ft
TransAlt. 18000 ft.

Airport Communications:
AWOS 3:135.25
ANCHORAGE CNTR:118
CTAF:122.9
SITKA RDO:121.3

PAFE Zoom In..

Runways:

(A) RW 11 length 4000 ft width 100 ft
---- / hdg 109

(B) RW 29 length 4000 ft width 100 ft
---- / hdg 289

Location; PAFE
Day. 23 / Time. 05.56 Zulu
* Altimeter: 30.28
* Temperature: 17° c. 62.6°f.
* Wind from: 120° Speed 03 kn.
Dewpoint: 12° c.
Visibility: 10 Statute Miles.
Clouds: Clear (automated report).

PAFE 230556Z AUTO 12003KT 10SM CLR 17/12 A3028 RMK AO2 SLP263 T01670122 10228 20150 53001


Wind From 120°
Speed 03 kn.

 
 
jpsmedia.com for Web Design worldairports.se 2018   terms of use